SC

 

 

Sooner Challenge OLR - Race 5 - America'sTop Bird

Station: Clarksdale MO - A Race

Distance: 416.326 Miles    

Release: 05-Nov-2021 07:45

Weather Release:    Arrival:

Wind at Release:     Wind at Arrival:

Temp at Release: °    Temp at Arrival: °

Lofts: 83

Birds: 141

Clocked: 112

Good Luck to Everyone!
Drops Pos Breeder Pigeon Name Color Sex Ent Arrival Speed To Win Elg PdHgRAOCPick
9470 1 Holts Loft - NC 0592-AU21-HOLT BB H 1 17:39:18.83 1232.907 00:00:00 Yes
4000 2 Liberty Loft - MA 13890-AU21-FOYS BB H 1 17:39:22.77 1232.771 00:00:04 Yes
2000 3 Horta Loft - IN 8540-AU21-JEDD BBWF H 1 17:39:23.78 1232.736 00:00:05 Yes
1500 4 Joe Zarachowicz - MD 0338-IF21-CCC BB H 1 17:39:25.99 1232.660 00:00:07 Yes
1250 5 Bryan Maier - PA 0576-IF21-MAIE BBSP H 1 17:39:32.00 1232.452 00:00:13 Yes
1000 6 Hurricane Creek - AL 0555-AU21-ATV BBWF H 1 17:39:38.59 1232.224 00:00:20 Yes
750 7 Bodzianowski Loft - IL 0533-AU21-VITA BB H 1 17:39:45.23 1231.995 00:00:26 Yes
750 8 Shirey Loft - PA 0633-AU21-GSV DKCK H 1 17:43:06.84 1225.074 00:03:48 Yes
750 9 Kolvenbag & Son - PA 1552-IF21-KOLV CK H 1 17:44:06.58 1223.038 00:04:48 Yes
500 10 Jallens Loft - LA 0222-AU21-LAF Annabelle CKWF H 1 17:44:59.54 1221.239 00:05:41 Yes
- 1-DROP 17:44:58.00 1220.239
500 11 Ken Easley & Son Racing - NM 0334-AU21-ARPU Gasoline BBWF H 1 17:46:34.38 1218.030 00:07:16 Yes
500 12 Ramirez Loft - TX 1344-AU21-DALL BB H 1 17:47:03.33 1217.054 00:07:44 Yes
500 13 Cemfly Loft 2 - OK 1112-AU21-PRO BB H 1 17:47:03.71 1217.041 00:07:45 Yes
500 14 Roger Harlin - OK 1624-AU21-PRO CK H 1 17:47:07.13 1216.925 00:07:48 Yes
200 15 Flying D Loft - TX 1326-AU21-FLYD ARPU 40365/ Aztec 75 CK H 1 17:47:08.60 1216.876 00:07:50 Yes
200 16 Rick Barker - CA 0218-AU21-VIP BB H 1 17:47:14.33 1216.683 00:07:55 Yes
200 17 Rick Barker - CA 0233-AU21-VIP BB H 2 17:49:00.84 1213.107 00:09:42 Yes
200 18 Nanez Family Loft - WI 1085-AU21-NANE BB H 1 17:49:05.04 1212.967 00:09:46 Yes
200 19 C G O Syndicate - GA 0056-IF21-CGO BB H 1 17:49:50.50 1211.447 00:10:32 Yes
200 20 Kolvenbag & Son - PA 1568-IF21-KOLV BB H 2 17:49:56.80 1211.237 00:10:38 Yes
200 21 Adams Loft - PA 1047-IF21-FSJ BB H 1 18:02:16.80 1187.036 00:22:58 Yes
200 22 Loux Loft - KS 0149-AU21-AIR BB H 1 18:02:45.89 1186.105 00:23:27 Yes
200 23 Flying D Loft - TX 1370-AU21-FLYD Flyd 694 / Tulsa 275 CK H 2 18:03:08.43 1185.384 00:23:50 Yes
200 24 Van Den Bossche Brothers - ME 1185-IF21-CMP Louis CKWF C 1 18:04:14.08 1183.289 00:24:55 Yes
25 Liu s Loft - MO 0548-AU21-BAIZ BBWF H 1 18:05:41.25 1180.520 00:26:22 Yes
26 LaQu Lofts - MI 6625-AU21-ARPU WiFi BB H 1 18:05:43.22 1180.457 00:26:24 Yes
27 SoFly - NC 0072-IF21-TRC Ww Express BB H 1 18:05:43.44 1180.450 00:26:25 Yes
28 Adams Loft - PA 1144-IF21-FSJ BLCK H 2 18:05:46.10 1180.366 00:26:27 Yes
29 Malone Family Loft - IL 70139-AU21-ARPU "One in every crowd" BB H 1 18:05:50.49 1180.227 00:26:32 Yes
30 Liberty Loft - MA 13893-AU21-FOYS BB H 2 18:05:53.34 1180.136 00:26:35 Yes
31 Wing & A Prayer - WI 1447-AU21-MPC BB H 1 18:10:55.02 1170.656 00:31:36 Yes
32 C F L - LA 1070-AU21-CFL CK H 1 18:10:56.31 1170.616 00:31:37 Yes
33 Air Wolf - TX 24716-AU21-AA CKWF H 1 18:10:56.95 1170.596 00:31:38 Yes
34 Wildman Loft - OK 0835-AU21-NOP BB H 1 18:10:58.45 1170.550 00:31:40 Yes
35 Roberts Family Loft - TX 0123-AU21-ROBE PSC124/ PSC902 BBWF H 1 18:11:01.30 1170.461 00:31:42 Yes
36 Galiano Loft - MD 0134-AU21-GAL BB H 1 18:11:04.45 1170.363 00:31:46 Yes
37 Joe Zarachowicz - MD 0903-IF21-CCC GRZL H 2 18:11:15.95 1170.004 00:31:57 Yes
38 Taranto Loft 2 - NJ 0120-AU21-TARA RDCK H 1 18:12:29.40 1167.722 00:33:11 Yes
39 John Gutierrez - NM 21109-AU21-GUTZ TXchmp BB H 1 18:12:31.91 1167.644 00:33:13 Yes
40 Greg McKnight - CA 1061-AU21-PRO BB H 1 18:12:47.83 1167.150 00:33:29 Yes
41 Ken Easley & Son Racing - NM 0337-AU21-ARPU Crude BBWF H 2 18:12:48.94 1167.116 00:33:30 Yes
42 Texas Dollys - TX 0051-AU21-SHIF Ruger GRZL H 1 18:12:51.65 1167.032 00:33:33 Yes
43 Dekeratry Loft - TX 0492-AU21-HOT RD H 1 18:13:12.67 1166.381 00:33:54 Yes
44 Kolvenbag & Son - PA 1231-AU21-TENT BB H 3 18:15:52.92 1161.443 00:36:34 Yes
45 Greg McKnight - CA 1060-AU21-PRO BB H 2 18:15:53.00 1161.441 00:36:34 Yes
46 Gary Gross - NE 2145-AU21-CIRP BB H 1 18:15:54.75 1161.387 00:36:36 Yes
47 Triple T Loft - TX 5349-AU21-ARPU CK H 1 18:18:59.17 1155.757 00:39:40 Yes
48 A P C Loft - TX 0290-AU21-APC BB H 1 18:23:15.85 1148.010 00:43:57 Yes
49 Cemfly Loft 2 - OK 1029-AU21-PRO CK H 2 18:23:19.14 1147.912 00:44:00 Yes
50 Bizblood - CA 3282-AU21-FVC Biz-Ken easley -Greek con CK H 1 18:23:45.46 1147.123 00:44:27 Yes
51 Bryan Maier - PA 0575-IF21-MAIE BB H 2 18:24:10.22 1146.383 00:44:51 Yes
52 Dickson Loft - OK 19102-AU21-FOYS Lady Lightning BB H 1 18:24:16.32 1146.200 00:44:57 Yes
53 Bionic Loft - LA 0173-AU21-CAJN BB H 1 18:39:31.36 1119.493 01:00:13 Yes
54 LaQu Lofts - MI 6618-AU21-ARPU Tellurium BB H 2 18:46:10.21 1108.238 01:06:51 Yes
55 Jones Boys - UT 1246-AU21-SLI 5194-2999 BB H 1 18:51:01.39 1100.163 01:11:43 Yes
56 Hollywood Lou Loft - FL 0641-AU21-HOLL BB H 1 18:51:06.27 1100.028 01:11:47 Yes
57 Powerwagon Loft - OH 0613-AU21-AA WEE PEE EXPRESS CK H 1 19:00:34.40 1086.728 01:19:57 Yes
58 Gomez Loft - CA 5082-AU21-CHP CKWF H 1 18:59:33.57 1086.724 01:19:57 Yes
58 Johnson - IL 7111-AU21-SMRP Careen GRZL H 1 19:11:54.57 1086.724 01:19:57 Yes
60 Pedro Diaz - FL 2690-AU21-FOYS 249 x 13307 BCWF H 1 2021-11-06 07:32:24.12 1069.213 01:30:59 Yes
61 Vangbros Family Loft - MN 21552-AU21-JEDD BB H 1 2021-11-06 08:17:50.27 1002.731 02:16:25 Yes
62 Roonies No1 Loft - WI 6151-AU21-WRP CK H 1 2021-11-06 08:18:02.58 1002.450 02:16:38 Yes
63 Joe Zarachowicz - MD 0921-IF21-CCC BB H 3 2021-11-06 08:21:04.64 998.306 02:19:40 Yes
64 Van Den Bossche Brothers - ME 1190-IF21-CMP BadboY BB C 2 2021-11-06 08:38:03.87 975.724 02:36:39 Yes
65 Marlee Doms - IN 4983-AU21-VITA SPLA H 1 2021-11-06 08:38:03.99 975.721 02:36:39 Yes
66 Galiano Loft - MD 0129-AU21-GAL GRZL H 2 2021-11-06 08:53:46.92 955.721 02:52:22 Yes
67 LaQu Lofts - MI 6627-AU21-ARPU Prism CK H 3 2021-11-06 08:54:15.90 955.119 02:52:51 Yes
68 Kastle Loft - KY 2134-AU21-KAST Kastle BonBon CK H 1 2021-11-06 08:55:14.02 953.914 02:53:49 Yes
69 Wing & A Prayer - WI 1440-AU21-MPC RED H 2 2021-11-06 08:55:18.57 953.820 02:53:54 Yes
70 Dekeratry Loft - TX 0473-AU21-HOT GRZL H 2 2021-11-06 09:02:34.67 944.880 03:01:10 Yes
71 Adams Loft - PA 1018-IF21-FSJ BB H 3 2021-11-06 09:14:35.22 930.471 03:13:10 Yes
72 Rueter Family Loft - OR 0935-AU21-CORP BB H 1 2021-11-06 09:18:13.51 926.192 03:16:49 Yes
73 Goldstar - Berkeley Flyers - IL 9106-AU21-STAR Blue And Gold BB H 1 2021-11-06 09:18:57.56 925.333 03:17:33 Yes
74 Pedro Diaz - FL 2688-AU21-FOYS 9225 x 40109 BB C 2 2021-11-06 09:27:49.39 915.090 03:26:25 Yes
75 Vangbros Family Loft - MN 21548-AU21-JEDD BBAN H 2 2021-11-06 09:28:49.09 913.954 03:27:24 Yes
76 Lou Coletta Loft - CA 0271-AU21-LCOL BB H 1 2021-11-06 09:32:30.48 909.767 03:31:06 Yes
77 ADS Hilltop Family Loft - Bob - NJ 47049-AU21-ARPU Osiris/ A.D.S Blue Powder SPLA H 1 2021-11-06 09:42:36.79 898.494 03:41:12 Yes
78 Johnson - IL 7115-AU21-SMRP Brian’s Wish ANDL H 2 2021-11-06 09:46:16.76 894.473 03:44:52 Yes
79 Higgins Family Racing - PA 7124-IF21-FOYS BB H 1 2021-11-06 09:59:32.28 880.226 03:58:07 Yes
80 Columba Loft - GA 1206-AU21-LYNC Silverita RDCK H 1 2021-11-06 10:01:46.12 877.874 04:00:21 Yes
81 Ken Easley & Son Racing - NM 0347-AU21-ARPU Electric SPLA H 3 2021-11-06 10:09:46.48 869.533 04:08:22 Yes
82 Van Den Bossche Brothers - ME 1215-IF21-CMP Hurricane GRZL H 3 2021-11-06 10:10:14.89 869.045 04:08:50 Yes
83 Genlla/Bizblood - CA 0620-AU21-GENL BB H 1 2021-11-06 10:22:54.83 856.184 04:21:30 Yes
84 Crooked River Challenge - OR 0436-AU21-CORP BB H 1 2021-11-06 10:24:42.83 854.387 04:23:18 Yes
85 Dfl - MN 0501-AU21-DRIG GRZL H 1 2021-11-06 10:26:47.59 852.320 04:25:23 Yes
86 Fastlane Loft - OK 0847-AU21-VITA GRZL H 1 2021-11-06 10:28:01.84 851.095 04:26:37 Yes
87 Ken Easley & Son Racing - NM 0338-AU21-ARPU Quaking Racer BB H 4 2021-11-06 10:29:58.00 849.185 04:28:33 Yes
88 House Of Paine - CA 1135-AU21-HOP GSF178xGSF176 CK H 1 2021-11-06 10:30:15.24 848.903 04:28:50 Yes
89 House Of Paine - CA 1139-AU21-HOP HOP1803xweyer439 BBWF H 2 2021-11-06 10:38:01.39 841.330 04:36:37 Yes
90 Danny Lum - HI 0822-IF21-FSC BB H 1 2021-11-06 10:40:13.58 839.207 04:38:49 Yes
91 335 loft - NC 1934-AU21-CDR BB H 1 2021-11-06 10:43:36.71 835.966 04:42:12 Yes
92 Lone Oak Loft - TX 2121-AU21-LOL Sonny-Rose-4 BB H 1 2021-11-06 10:47:02.40 832.709 04:45:38 Yes
93 Joe Zarachowicz - MD 0308-IF21-CCC BB H 4 2021-11-06 11:05:49.23 815.308 05:04:24 Yes
94 BFA Loft - MN 6570-AU21-ARPU Blessing BB H 1 2021-11-06 11:20:21.95 802.323 05:18:57 Yes
95 Rueter Family Loft - OR 0879-AU21-CORP BBWF H 2 2021-11-06 11:35:24.63 789.320 05:34:00 Yes
96 Dickson Loft - OK 0300-AU21-DICK BBWF H 2 2021-11-06 11:41:51.23 783.879 05:40:26 Yes
97 One Oak - LA 1147-AU21-AA CK H 1 2021-11-06 11:44:58.68 781.268 05:43:34 Yes
98 Liu s Loft - MO 0553-AU21-BAIZ BB H 2 2021-11-06 11:47:16.04 779.365 05:45:51 Yes
99 Sarrett Racing Pigeons - TX 1964-AU21-PPH Carbon BB H 1 2021-11-06 11:47:57.47 778.793 05:46:33 Yes

There are 143 bird records

Note: These Race Results are unofficial and subject to change until verified by the Race Committee and declared final.